sensor_id;sensor_type;location;lat;lon;timestamp;P1;P4;P2;P0;N10;N4;N25;N1;N05;TS
85288;SPS30;75692;48.224;16.338;2024-02-21T00:07:24;5.8;;5.9;5.5;;;;;;
85288;SPS30;75692;48.224;16.338;2024-02-21T00:17:24;5.5;;5.5;5.2;;;;;;
85288;SPS30;75692;48.224;16.338;2024-02-21T00:27:24;6.7;;6.8;6.4;;;;;;
85288;SPS30;75692;48.224;16.338;2024-02-21T00:37:24;5.2;;5.2;5.0;;;;;;
85288;SPS30;75692;48.224;16.338;2024-02-21T00:47:25;4.9;;5.0;4.6;;;;;;
85288;SPS30;75692;48.224;16.338;2024-02-21T00:57:25;4.3;;4.3;4.1;;;;;;
85288;SPS30;75692;48.224;16.338;2024-02-21T01:07:24;5.1;;5.1;4.8;;;;;;
85288;SPS30;75692;48.224;16.338;2024-02-21T01:17:25;5.1;;5.1;4.9;;;;;;
85288;SPS30;75692;48.224;16.338;2024-02-21T01:27:24;5.1;;5.1;4.8;;;;;;
85288;SPS30;75692;48.224;16.338;2024-02-21T01:37:25;4.7;;4.7;4.4;;;;;;
85288;SPS30;75692;48.224;16.338;2024-02-21T01:47:25;4.9;;4.9;4.6;;;;;;
85288;SPS30;75692;48.224;16.338;2024-02-21T01:57:25;5.1;;5.2;4.9;;;;;;
85288;SPS30;75692;48.224;16.338;2024-02-21T02:07:25;4.5;;4.5;4.3;;;;;;
85288;SPS30;75692;48.224;16.338;2024-02-21T02:17:25;5.5;;5.6;5.2;;;;;;
85288;SPS30;75692;48.224;16.338;2024-02-21T02:27:25;4.9;;5.0;4.7;;;;;;
85288;SPS30;75692;48.224;16.338;2024-02-21T02:37:25;4.3;;4.4;4.1;;;;;;
85288;SPS30;75692;48.224;16.338;2024-02-21T02:47:25;4.8;;4.8;4.5;;;;;;
85288;SPS30;75692;48.224;16.338;2024-02-21T02:57:25;5.0;;5.1;4.8;;;;;;
85288;SPS30;75692;48.224;16.338;2024-02-21T03:07:25;5.1;;5.2;4.8;;;;;;
85288;SPS30;75692;48.224;16.338;2024-02-21T03:17:25;5.2;;5.2;5.0;;;;;;
85288;SPS30;75692;48.224;16.338;2024-02-21T03:27:26;5.4;;5.5;5.1;;;;;;
85288;SPS30;75692;48.224;16.338;2024-02-21T03:37:25;4.8;;4.8;4.5;;;;;;
85288;SPS30;75692;48.224;16.338;2024-02-21T03:47:25;5.4;;5.4;5.1;;;;;;
85288;SPS30;75692;48.224;16.338;2024-02-21T03:57:25;5.0;;5.1;4.8;;;;;;
85288;SPS30;75692;48.224;16.338;2024-02-21T04:07:25;5.7;;5.8;5.4;;;;;;
85288;SPS30;75692;48.224;16.338;2024-02-21T04:17:25;5.3;;5.4;5.1;;;;;;
85288;SPS30;75692;48.224;16.338;2024-02-21T04:27:25;6.0;;6.1;5.7;;;;;;
85288;SPS30;75692;48.224;16.338;2024-02-21T04:37:25;5.9;;6.0;5.6;;;;;;
85288;SPS30;75692;48.224;16.338;2024-02-21T04:47:25;7.1;;7.1;6.8;;;;;;
85288;SPS30;75692;48.224;16.338;2024-02-21T04:57:25;5.7;;5.7;5.4;;;;;;
85288;SPS30;75692;48.224;16.338;2024-02-21T05:07:25;6.4;;6.5;6.1;;;;;;
85288;SPS30;75692;48.224;16.338;2024-02-21T05:17:25;5.4;;5.5;5.2;;;;;;
85288;SPS30;75692;48.224;16.338;2024-02-21T05:27:25;4.6;;4.6;4.4;;;;;;
85288;SPS30;75692;48.224;16.338;2024-02-21T05:37:25;5.2;;5.2;4.9;;;;;;
85288;SPS30;75692;48.224;16.338;2024-02-21T05:47:25;5.2;;5.2;5.0;;;;;;
85288;SPS30;75692;48.224;16.338;2024-02-21T05:57:25;4.4;;4.4;4.1;;;;;;
85288;SPS30;75692;48.224;16.338;2024-02-21T06:07:25;3.7;;3.8;3.5;;;;;;
85288;SPS30;75692;48.224;16.338;2024-02-21T06:17:25;4.2;;4.3;4.0;;;;;;
85288;SPS30;75692;48.224;16.338;2024-02-21T06:27:25;4.6;;4.6;4.4;;;;;;
85288;SPS30;75692;48.224;16.338;2024-02-21T06:37:25;6.3;;6.3;6.0;;;;;;
85288;SPS30;75692;48.224;16.338;2024-02-21T06:47:25;4.9;;4.9;4.7;;;;;;
85288;SPS30;75692;48.224;16.338;2024-02-21T06:57:25;4.0;;4.1;3.8;;;;;;
85288;SPS30;75692;48.224;16.338;2024-02-21T07:07:25;4.4;;4.4;4.2;;;;;;
85288;SPS30;75692;48.224;16.338;2024-02-21T07:17:25;4.3;;4.3;4.1;;;;;;
85288;SPS30;75692;48.224;16.338;2024-02-21T07:27:25;4.3;;4.3;4.1;;;;;;
85288;SPS30;75692;48.224;16.338;2024-02-21T07:37:25;3.6;;3.6;3.4;;;;;;
85288;SPS30;75692;48.224;16.338;2024-02-21T07:47:25;3.8;;3.9;3.6;;;;;;
85288;SPS30;75692;48.224;16.338;2024-02-21T07:52:25;4.1;;4.3;3.8;;;;;;
85288;SPS30;75692;48.224;16.338;2024-02-21T08:02:25;4.2;;4.3;4.0;;;;;;
85288;SPS30;75692;48.224;16.338;2024-02-21T08:12:25;3.4;;3.4;3.2;;;;;;
85288;SPS30;75692;48.224;16.338;2024-02-21T08:22:25;2.9;;2.9;2.7;;;;;;
85288;SPS30;75692;48.224;16.338;2024-02-21T08:32:25;2.8;;2.9;2.6;;;;;;
85288;SPS30;75692;48.224;16.338;2024-02-21T08:42:25;3.7;;3.8;3.4;;;;;;
85288;SPS30;75692;48.224;16.338;2024-02-21T08:52:25;2.9;;2.9;2.7;;;;;;
85288;SPS30;75692;48.224;16.338;2024-02-21T08:57:25;3.4;;3.5;3.2;;;;;;
85288;SPS30;75692;48.224;16.338;2024-02-21T09:07:25;3.0;;3.1;2.8;;;;;;
85288;SPS30;75692;48.224;16.338;2024-02-21T09:17:25;3.2;;3.3;2.9;;;;;;
85288;SPS30;75692;48.224;16.338;2024-02-21T09:27:25;2.8;;2.9;2.5;;;;;;
85288;SPS30;75692;48.224;16.338;2024-02-21T09:37:25;2.6;;2.7;2.4;;;;;;
85288;SPS30;75692;48.224;16.338;2024-02-21T09:47:28;3.5;;3.6;3.3;;;;;;
85288;SPS30;75692;48.224;16.338;2024-02-21T09:52:25;3.0;;3.0;2.8;;;;;;
85288;SPS30;75692;48.224;16.338;2024-02-21T10:02:25;3.0;;3.2;2.7;;;;;;
85288;SPS30;75692;48.224;16.338;2024-02-21T10:12:25;3.7;;3.9;3.4;;;;;;
85288;SPS30;75692;48.224;16.338;2024-02-21T10:22:25;3.9;;4.2;3.5;;;;;;
85288;SPS30;75692;48.224;16.338;2024-02-21T10:27:25;3.3;;3.5;3.0;;;;;;
85288;SPS30;75692;48.224;16.338;2024-02-21T10:32:25;3.3;;3.4;3.1;;;;;;
85288;SPS30;75692;48.224;16.338;2024-02-21T10:42:26;3.0;;3.1;2.8;;;;;;
85288;SPS30;75692;48.224;16.338;2024-02-21T10:52:28;3.3;;3.4;3.1;;;;;;
85288;SPS30;75692;48.224;16.338;2024-02-21T10:57:25;3.1;;3.2;2.9;;;;;;
85288;SPS30;75692;48.224;16.338;2024-02-21T11:07:25;2.7;;2.8;2.6;;;;;;
85288;SPS30;75692;48.224;16.338;2024-02-21T11:17:25;3.5;;3.6;3.2;;;;;;
85288;SPS30;75692;48.224;16.338;2024-02-21T11:27:25;3.4;;3.6;3.1;;;;;;
85288;SPS30;75692;48.224;16.338;2024-02-21T11:37:25;3.2;;3.4;3.0;;;;;;
85288;SPS30;75692;48.224;16.338;2024-02-21T11:47:25;5.9;;8.2;3.9;;;;;;
85288;SPS30;75692;48.224;16.338;2024-02-21T11:57:25;3.7;;3.9;3.3;;;;;;
85288;SPS30;75692;48.224;16.338;2024-02-21T12:02:26;3.3;;3.5;3.0;;;;;;
85288;SPS30;75692;48.224;16.338;2024-02-21T12:12:25;3.3;;3.4;3.0;;;;;;
85288;SPS30;75692;48.224;16.338;2024-02-21T12:22:25;3.7;;3.9;3.4;;;;;;
85288;SPS30;75692;48.224;16.338;2024-02-21T12:32:25;4.1;;4.5;3.6;;;;;;
85288;SPS30;75692;48.224;16.338;2024-02-21T12:42:25;3.8;;4.2;3.3;;;;;;
85288;SPS30;75692;48.224;16.338;2024-02-21T12:52:25;2.8;;3.1;2.5;;;;;;
85288;SPS30;75692;48.224;16.338;2024-02-21T13:02:26;2.6;;2.7;2.4;;;;;;
85288;SPS30;75692;48.224;16.338;2024-02-21T13:12:25;2.2;;2.3;2.0;;;;;;
85288;SPS30;75692;48.224;16.338;2024-02-21T13:22:25;2.8;;3.0;2.6;;;;;;
85288;SPS30;75692;48.224;16.338;2024-02-21T13:32:25;5.2;;5.7;4.6;;;;;;
85288;SPS30;75692;48.224;16.338;2024-02-21T13:42:25;2.5;;2.6;2.3;;;;;;
85288;SPS30;75692;48.224;16.338;2024-02-21T13:52:25;2.7;;2.9;2.5;;;;;;
85288;SPS30;75692;48.224;16.338;2024-02-21T14:02:25;2.3;;2.4;2.1;;;;;;
85288;SPS30;75692;48.224;16.338;2024-02-21T14:12:25;2.9;;3.0;2.7;;;;;;
85288;SPS30;75692;48.224;16.338;2024-02-21T14:22:26;2.9;;3.0;2.7;;;;;;
85288;SPS30;75692;48.224;16.338;2024-02-21T14:32:25;2.8;;2.9;2.6;;;;;;
85288;SPS30;75692;48.224;16.338;2024-02-21T14:42:25;2.4;;2.5;2.2;;;;;;
85288;SPS30;75692;48.224;16.338;2024-02-21T14:52:26;2.5;;2.8;2.2;;;;;;
85288;SPS30;75692;48.224;16.338;2024-02-21T15:02:25;2.7;;2.8;2.5;;;;;;
85288;SPS30;75692;48.224;16.338;2024-02-21T15:12:25;2.7;;2.7;2.5;;;;;;
85288;SPS30;75692;48.224;16.338;2024-02-21T15:22:25;3.5;;3.5;3.3;;;;;;
85288;SPS30;75692;48.224;16.338;2024-02-21T15:32:25;4.8;;4.9;4.5;;;;;;
85288;SPS30;75692;48.224;16.338;2024-02-21T15:42:25;3.9;;4.0;3.7;;;;;;
85288;SPS30;75692;48.224;16.338;2024-02-21T15:52:25;3.5;;3.6;3.3;;;;;;
85288;SPS30;75692;48.224;16.338;2024-02-21T16:02:25;4.8;;4.9;4.5;;;;;;
85288;SPS30;75692;48.224;16.338;2024-02-21T16:12:25;3.6;;3.6;3.4;;;;;;
85288;SPS30;75692;48.224;16.338;2024-02-21T16:22:25;4.0;;4.2;3.8;;;;;;
85288;SPS30;75692;48.224;16.338;2024-02-21T16:32:26;3.9;;3.9;3.7;;;;;;
85288;SPS30;75692;48.224;16.338;2024-02-21T16:42:25;4.7;;4.8;4.4;;;;;;
85288;SPS30;75692;48.224;16.338;2024-02-21T16:52:25;3.8;;3.9;3.6;;;;;;
85288;SPS30;75692;48.224;16.338;2024-02-21T17:02:25;5.5;;5.6;5.2;;;;;;
85288;SPS30;75692;48.224;16.338;2024-02-21T17:07:25;5.9;;6.0;5.6;;;;;;
85288;SPS30;75692;48.224;16.338;2024-02-21T17:17:25;5.9;;6.0;5.6;;;;;;
85288;SPS30;75692;48.224;16.338;2024-02-21T17:27:25;9.0;;9.1;8.5;;;;;;
85288;SPS30;75692;48.224;16.338;2024-02-21T17:37:25;9.1;;9.2;8.6;;;;;;
85288;SPS30;75692;48.224;16.338;2024-02-21T17:47:26;19.0;;19.4;17.8;;;;;;
85288;SPS30;75692;48.224;16.338;2024-02-21T17:57:25;14.7;;15.0;13.8;;;;;;
85288;SPS30;75692;48.224;16.338;2024-02-21T18:07:25;16.4;;16.7;15.4;;;;;;
85288;SPS30;75692;48.224;16.338;2024-02-21T18:17:25;12.2;;12.5;11.5;;;;;;
85288;SPS30;75692;48.224;16.338;2024-02-21T18:27:25;18.2;;18.4;17.1;;;;;;
85288;SPS30;75692;48.224;16.338;2024-02-21T18:37:25;17.6;;18.0;16.5;;;;;;
85288;SPS30;75692;48.224;16.338;2024-02-21T18:47:25;19.7;;20.1;18.4;;;;;;
85288;SPS30;75692;48.224;16.338;2024-02-21T18:57:25;13.1;;13.3;12.4;;;;;;
85288;SPS30;75692;48.224;16.338;2024-02-21T19:07:25;15.0;;15.3;14.1;;;;;;
85288;SPS30;75692;48.224;16.338;2024-02-21T19:17:25;14.6;;14.9;13.7;;;;;;
85288;SPS30;75692;48.224;16.338;2024-02-21T19:27:25;16.7;;17.0;15.8;;;;;;
85288;SPS30;75692;48.224;16.338;2024-02-21T19:37:25;16.8;;17.2;15.6;;;;;;
85288;SPS30;75692;48.224;16.338;2024-02-21T19:47:26;14.6;;14.9;13.7;;;;;;
85288;SPS30;75692;48.224;16.338;2024-02-21T19:57:25;19.6;;19.9;18.5;;;;;;
85288;SPS30;75692;48.224;16.338;2024-02-21T20:07:25;20.9;;21.2;19.7;;;;;;
85288;SPS30;75692;48.224;16.338;2024-02-21T20:17:25;22.1;;22.3;20.9;;;;;;
85288;SPS30;75692;48.224;16.338;2024-02-21T20:27:25;18.5;;18.9;17.4;;;;;;
85288;SPS30;75692;48.224;16.338;2024-02-21T20:37:26;16.8;;17.0;15.9;;;;;;
85288;SPS30;75692;48.224;16.338;2024-02-21T20:47:25;13.5;;13.8;12.7;;;;;;
85288;SPS30;75692;48.224;16.338;2024-02-21T20:57:25;12.6;;12.9;11.8;;;;;;
85288;SPS30;75692;48.224;16.338;2024-02-21T21:07:25;11.6;;11.8;10.9;;;;;;
85288;SPS30;75692;48.224;16.338;2024-02-21T21:17:26;10.1;;10.2;9.6;;;;;;
85288;SPS30;75692;48.224;16.338;2024-02-21T21:27:25;12.7;;12.7;12.1;;;;;;
85288;SPS30;75692;48.224;16.338;2024-02-21T21:37:25;12.0;;12.3;11.3;;;;;;
85288;SPS30;75692;48.224;16.338;2024-02-21T21:47:25;14.2;;14.3;13.4;;;;;;
85288;SPS30;75692;48.224;16.338;2024-02-21T21:52:25;15.4;;15.8;14.4;;;;;;
85288;SPS30;75692;48.224;16.338;2024-02-21T22:02:25;14.5;;14.7;13.6;;;;;;
85288;SPS30;75692;48.224;16.338;2024-02-21T22:12:25;13.5;;13.7;12.8;;;;;;
85288;SPS30;75692;48.224;16.338;2024-02-21T22:22:25;14.3;;14.4;13.4;;;;;;
85288;SPS30;75692;48.224;16.338;2024-02-21T22:32:25;16.1;;16.2;15.2;;;;;;
85288;SPS30;75692;48.224;16.338;2024-02-21T22:42:26;14.5;;14.8;13.6;;;;;;
85288;SPS30;75692;48.224;16.338;2024-02-21T22:52:25;14.5;;14.5;13.8;;;;;;
85288;SPS30;75692;48.224;16.338;2024-02-21T23:02:25;15.4;;15.8;14.4;;;;;;
85288;SPS30;75692;48.224;16.338;2024-02-21T23:12:25;15.5;;15.8;14.5;;;;;;
85288;SPS30;75692;48.224;16.338;2024-02-21T23:22:25;15.8;;16.1;14.8;;;;;;
85288;SPS30;75692;48.224;16.338;2024-02-21T23:32:25;14.3;;14.5;13.4;;;;;;
85288;SPS30;75692;48.224;16.338;2024-02-21T23:42:25;15.5;;15.5;14.8;;;;;;
85288;SPS30;75692;48.224;16.338;2024-02-21T23:52:25;15.1;;15.4;14.2;;;;;;
